createdAt,value
2022-12-25T00:01:24.930Z,7.53
2022-12-25T00:03:52.833Z,6.93
2022-12-25T00:06:20.230Z,8.10
2022-12-25T00:08:46.986Z,7.38
2022-12-25T00:11:16.166Z,7.15
2022-12-25T00:13:43.718Z,8.55
2022-12-25T00:16:19.832Z,6.55
2022-12-25T00:18:47.421Z,6.97
2022-12-25T00:21:15.886Z,7.85
2022-12-25T00:23:43.128Z,7.55
2022-12-25T00:26:13.741Z,7.50
2022-12-25T00:28:40.754Z,8.70
2022-12-25T00:31:10.689Z,8.02
2022-12-25T00:33:39.518Z,8.30
2022-12-25T00:36:07.256Z,8.02
2022-12-25T00:38:36.484Z,7.65
2022-12-25T00:41:07.856Z,7.72
2022-12-25T00:43:37.228Z,7.70
2022-12-25T00:46:06.059Z,6.78
2022-12-25T00:48:33.699Z,7.20
2022-12-25T00:51:03.329Z,7.10
2022-12-25T00:53:30.589Z,7.35
2022-12-25T00:56:03.921Z,7.53
2022-12-25T00:58:34.193Z,8.55
2022-12-25T01:01:01.444Z,7.82
2022-12-25T01:03:28.773Z,6.68
2022-12-25T01:06:00.940Z,8.05
2022-12-25T01:08:34.936Z,7.53
2022-12-25T01:11:05.857Z,7.28
2022-12-25T01:13:34.978Z,7.90
2022-12-25T01:16:13.916Z,7.30
2022-12-25T01:18:42.734Z,6.97
2022-12-25T01:21:11.595Z,8.38
2022-12-25T01:23:39.689Z,6.93
2022-12-25T01:26:07.740Z,7.60
2022-12-25T01:28:34.899Z,7.70
2022-12-25T01:31:02.249Z,6.90
2022-12-25T01:33:29.108Z,6.95
2022-12-25T01:36:01.780Z,6.43
2022-12-25T01:38:28.580Z,6.50
2022-12-25T01:40:55.558Z,7.53
2022-12-25T01:43:25.925Z,6.82
2022-12-25T01:45:57.929Z,7.70
2022-12-25T01:48:38.439Z,7.13
2022-12-25T01:51:23.277Z,7.28
2022-12-25T01:53:50.413Z,7.05
2022-12-25T01:56:17.406Z,7.65
2022-12-25T01:58:45.782Z,7.22
2022-12-25T02:01:12.735Z,6.88
2022-12-25T02:03:42.450Z,7.65
2022-12-25T02:06:09.951Z,7.15
2022-12-25T02:08:36.830Z,6.85
2022-12-25T02:11:03.661Z,7.13
2022-12-25T02:13:31.092Z,6.22
2022-12-25T02:16:15.723Z,7.78
2022-12-25T02:18:52.123Z,6.68
2022-12-25T02:21:49.095Z,6.00
2022-12-25T02:25:05.109Z,6.18
2022-12-25T02:28:05.518Z,5.93
2022-12-25T02:30:42.776Z,6.20
2022-12-25T02:33:35.560Z,6.90
2022-12-25T02:36:10.408Z,5.93
2022-12-25T02:39:04.088Z,5.50
2022-12-25T02:41:39.570Z,6.07
2022-12-25T02:44:34.335Z,5.40
2022-12-25T02:47:21.391Z,5.85
2022-12-25T02:50:07.647Z,5.60
2022-12-25T02:52:53.642Z,5.30
2022-12-25T02:55:49.498Z,5.15
2022-12-25T02:58:39.960Z,5.38
2022-12-25T03:01:30.905Z,5.72
2022-12-25T03:04:20.433Z,5.22
2022-12-25T03:07:19.758Z,5.22
2022-12-25T03:10:21.675Z,5.35
2022-12-25T03:13:01.965Z,4.97
2022-12-25T03:15:47.426Z,4.85
2022-12-25T03:18:18.323Z,4.55
2022-12-25T03:21:03.910Z,4.35
2022-12-25T03:23:53.135Z,4.78
2022-12-25T03:26:38.699Z,4.20
2022-12-25T03:29:05.777Z,4.53
2022-12-25T03:31:38.417Z,4.38
2022-12-25T03:34:40.289Z,4.25
2022-12-25T03:37:42.987Z,4.18
2022-12-25T03:40:47.491Z,4.35
2022-12-25T03:43:57.777Z,4.10
2022-12-25T03:46:50.140Z,3.95
2022-12-25T03:49:50.352Z,4.30
2022-12-25T03:52:40.967Z,4.18
2022-12-25T03:55:31.473Z,3.72
2022-12-25T03:58:16.761Z,3.83
2022-12-25T04:01:05.252Z,3.72
2022-12-25T04:03:50.983Z,3.85
2022-12-25T04:06:36.365Z,3.55
2022-12-25T04:09:22.020Z,3.92
2022-12-25T04:12:07.322Z,3.45
2022-12-25T04:14:52.683Z,3.92
2022-12-25T04:17:41.088Z,3.67
2022-12-25T04:20:26.773Z,3.70
2022-12-25T04:23:12.120Z,3.50
2022-12-25T04:25:57.582Z,3.58
2022-12-25T04:28:43.096Z,3.20
2022-12-25T04:31:28.734Z,3.60
2022-12-25T04:34:13.712Z,3.30
2022-12-25T04:36:40.551Z,3.20
2022-12-25T04:39:07.612Z,4.00
2022-12-25T04:41:34.370Z,3.10
2022-12-25T04:44:01.230Z,3.42
2022-12-25T04:46:28.383Z,2.97
2022-12-25T04:48:55.348Z,3.25
2022-12-25T04:51:24.755Z,3.00
2022-12-25T04:53:53.076Z,3.00
2022-12-25T04:56:20.812Z,3.20
2022-12-25T04:58:48.016Z,3.17
2022-12-25T05:01:15.562Z,3.13
2022-12-25T05:03:42.410Z,2.92
2022-12-25T05:06:09.967Z,3.33
2022-12-25T05:08:37.397Z,3.65
2022-12-25T05:11:13.501Z,3.35
2022-12-25T05:13:40.748Z,4.07
2022-12-25T05:16:20.809Z,3.05
2022-12-25T05:18:52.042Z,3.50
2022-12-25T05:21:19.308Z,3.25
2022-12-25T05:23:50.517Z,3.78
2022-12-25T05:26:21.559Z,3.45
2022-12-25T05:28:48.699Z,3.45
2022-12-25T05:31:18.877Z,3.90
2022-12-25T05:33:51.345Z,3.90
2022-12-25T05:36:18.700Z,3.80
2022-12-25T05:38:45.934Z,3.90
2022-12-25T05:41:13.002Z,3.78
2022-12-25T05:43:39.792Z,3.33
2022-12-25T05:46:09.373Z,3.60
2022-12-25T05:48:37.187Z,3.72
2022-12-25T05:51:09.272Z,3.90
2022-12-25T05:53:37.711Z,3.92
2022-12-25T05:56:06.950Z,3.60
2022-12-25T05:58:39.522Z,4.57
2022-12-25T06:01:15.804Z,3.80
2022-12-25T06:03:42.846Z,4.05
2022-12-25T06:06:10.503Z,3.33
2022-12-25T06:08:37.338Z,3.80
2022-12-25T06:11:05.730Z,4.30
2022-12-25T06:13:35.102Z,3.70
2022-12-25T06:16:10.060Z,3.67
2022-12-25T06:18:43.588Z,3.90
2022-12-25T06:21:12.742Z,3.33
2022-12-25T06:23:40.013Z,3.95
2022-12-25T06:26:11.288Z,3.85
2022-12-25T06:28:38.228Z,3.42
2022-12-25T06:31:11.516Z,3.50
2022-12-25T06:33:38.604Z,3.80
2022-12-25T06:36:11.644Z,3.47
2022-12-25T06:38:39.063Z,3.38
2022-12-25T06:41:08.279Z,3.42
2022-12-25T06:43:35.131Z,3.20
2022-12-25T06:46:07.390Z,4.38
2022-12-25T06:48:34.626Z,3.15
2022-12-25T06:51:03.163Z,3.00
2022-12-25T06:53:40.431Z,3.10
2022-12-25T06:56:15.593Z,3.05
2022-12-25T06:58:44.818Z,2.80
2022-12-25T07:01:20.725Z,2.90
2022-12-25T07:03:53.512Z,2.83
2022-12-25T07:06:21.040Z,3.60
2022-12-25T07:08:48.697Z,3.53
2022-12-25T07:11:18.828Z,2.85
2022-12-25T07:13:51.523Z,2.92
2022-12-25T07:16:18.792Z,3.40
2022-12-25T07:18:46.981Z,3.22
2022-12-25T07:21:21.514Z,3.75
2022-12-25T07:23:51.415Z,3.47
2022-12-25T07:26:18.341Z,3.92
2022-12-25T07:28:45.192Z,3.78
2022-12-25T07:31:14.324Z,3.80
2022-12-25T07:33:41.770Z,3.95
2022-12-25T07:36:12.610Z,4.00
2022-12-25T07:38:41.847Z,3.67
2022-12-25T07:41:13.152Z,4.32
2022-12-25T07:43:40.314Z,4.10
2022-12-25T07:46:07.696Z,4.07
2022-12-25T07:48:36.639Z,3.90
2022-12-25T07:51:10.193Z,4.18
2022-12-25T07:53:37.743Z,3.97
2022-12-25T07:56:11.825Z,4.15
2022-12-25T07:58:39.733Z,3.40
2022-12-25T08:01:10.443Z,3.63
2022-12-25T08:03:37.959Z,3.88
2022-12-25T08:06:07.701Z,4.45
2022-12-25T08:08:35.500Z,5.35
2022-12-25T08:11:02.760Z,7.35
2022-12-25T08:13:34.337Z,6.32
2022-12-25T08:16:04.836Z,4.45
2022-12-25T08:18:34.336Z,4.07
2022-12-25T08:21:06.694Z,5.35
2022-12-25T08:23:42.352Z,6.03
2022-12-25T08:26:12.224Z,5.28
2022-12-25T08:28:39.432Z,6.05
2022-12-25T08:31:11.671Z,5.38
2022-12-25T08:33:39.647Z,4.28
2022-12-25T08:36:08.869Z,4.30
2022-12-25T08:38:36.169Z,4.30
2022-12-25T08:41:03.842Z,3.90
2022-12-25T08:43:31.712Z,3.75
2022-12-25T08:45:58.647Z,3.90
2022-12-25T08:48:26.994Z,3.92
2022-12-25T08:50:54.437Z,4.35
2022-12-25T08:53:25.415Z,4.20
2022-12-25T08:56:02.335Z,4.38
2022-12-25T08:58:38.082Z,3.42
2022-12-25T09:01:08.895Z,4.07
2022-12-25T09:03:37.024Z,3.58
2022-12-25T09:06:10.702Z,3.30
2022-12-25T09:08:48.158Z,3.38
2022-12-25T09:11:23.913Z,3.22
2022-12-25T09:13:55.344Z,3.92
2022-12-25T09:16:25.795Z,3.42
2022-12-25T09:18:53.127Z,3.42
2022-12-25T09:21:22.814Z,3.72
2022-12-25T09:23:52.775Z,4.43
2022-12-25T09:26:23.312Z,3.63
2022-12-25T09:28:58.048Z,3.72
2022-12-25T09:31:28.164Z,3.42
2022-12-25T09:33:58.455Z,3.15
2022-12-25T09:36:31.199Z,3.53
2022-12-25T09:39:00.912Z,3.80
2022-12-25T09:42:16.923Z,4.30
2022-12-25T09:45:00.873Z,3.80
2022-12-25T09:47:38.860Z,3.50
2022-12-25T09:50:17.821Z,4.72
2022-12-25T09:53:09.843Z,5.05
2022-12-25T09:55:47.216Z,7.90
2022-12-25T09:58:14.340Z,7.75
2022-12-25T10:00:44.276Z,8.07
2022-12-25T10:03:20.411Z,7.22
2022-12-25T10:05:53.863Z,6.53
2022-12-25T10:08:35.746Z,5.85
2022-12-25T10:11:22.154Z,6.50
2022-12-25T10:14:23.909Z,5.43
2022-12-25T10:17:26.441Z,5.22
2022-12-25T10:20:02.412Z,6.40
2022-12-25T10:22:38.165Z,6.30
2022-12-25T10:25:07.302Z,5.10
2022-12-25T10:27:42.800Z,7.22
2022-12-25T10:30:19.975Z,5.65
2022-12-25T10:32:47.679Z,6.47
2022-12-25T10:35:16.816Z,7.35
2022-12-25T10:37:45.771Z,6.13
2022-12-25T10:40:46.009Z,7.25
2022-12-25T10:43:26.021Z,8.35
2022-12-25T10:45:52.623Z,7.03
2022-12-25T10:48:30.707Z,8.95
2022-12-25T10:50:57.563Z,6.22
2022-12-25T10:53:31.508Z,7.07
2022-12-25T10:56:03.261Z,6.55
2022-12-25T10:58:34.070Z,5.38
2022-12-25T11:01:06.807Z,5.15
2022-12-25T11:03:37.246Z,5.60
2022-12-25T11:06:05.356Z,6.35
2022-12-25T11:08:34.985Z,5.55
2022-12-25T11:11:08.993Z,6.75
2022-12-25T11:13:40.547Z,6.70
2022-12-25T11:16:30.984Z,6.03
2022-12-25T11:18:58.989Z,6.72
2022-12-25T11:21:32.739Z,7.35
2022-12-25T11:24:00.859Z,7.50
2022-12-25T11:26:29.917Z,6.00
2022-12-25T11:28:57.690Z,7.03
2022-12-25T11:31:40.637Z,6.30
2022-12-25T11:34:23.313Z,7.03
2022-12-25T11:36:52.803Z,6.50
2022-12-25T11:39:29.842Z,7.07
2022-12-25T11:42:10.050Z,6.78
2022-12-25T11:45:01.328Z,6.70
2022-12-25T11:47:34.552Z,8.00
2022-12-25T11:50:07.944Z,7.78
2022-12-25T11:52:38.450Z,7.45
2022-12-25T11:55:19.711Z,7.40
2022-12-25T11:57:53.714Z,8.23
2022-12-25T12:00:20.835Z,7.85
2022-12-25T12:02:57.463Z,7.60
2022-12-25T12:05:42.660Z,8.85
2022-12-25T12:08:10.063Z,8.95
2022-12-25T12:10:42.028Z,9.13
2022-12-25T12:13:40.100Z,9.80
2022-12-25T12:16:08.285Z,9.40
2022-12-25T12:18:35.653Z,8.82
2022-12-25T12:21:23.923Z,9.40
2022-12-25T12:24:12.069Z,10.48
2022-12-25T12:26:40.995Z,10.25
2022-12-25T12:29:28.071Z,9.60
2022-12-25T12:31:59.955Z,9.48
2022-12-25T12:34:32.602Z,10.57
2022-12-25T12:37:07.676Z,8.43
2022-12-25T12:39:38.468Z,10.98
2022-12-25T12:42:25.938Z,9.57
2022-12-25T12:44:56.366Z,12.73
2022-12-25T12:47:37.040Z,11.68
2022-12-25T12:50:05.907Z,10.32
2022-12-25T12:52:39.108Z,11.75
2022-12-25T12:55:14.673Z,11.02
2022-12-25T12:57:47.247Z,10.90
2022-12-25T13:00:14.043Z,13.60
2022-12-25T13:03:03.100Z,11.75
2022-12-25T13:05:45.205Z,10.98
2022-12-25T13:08:38.463Z,12.18
2022-12-25T13:11:22.649Z,12.50
2022-12-25T13:13:52.654Z,12.70
2022-12-25T13:16:25.538Z,13.15
2022-12-25T13:18:55.229Z,12.18
2022-12-25T13:21:30.257Z,12.18
2022-12-25T13:24:03.428Z,12.68
2022-12-25T13:26:31.339Z,12.93
2022-12-25T13:28:59.289Z,13.00
2022-12-25T13:31:28.665Z,12.18
2022-12-25T13:34:03.552Z,14.55
2022-12-25T13:36:37.908Z,11.38
2022-12-25T13:39:08.852Z,10.68
2022-12-25T13:42:06.948Z,11.60
2022-12-25T13:44:47.275Z,11.52
2022-12-25T13:47:18.897Z,12.25
2022-12-25T13:49:46.552Z,13.45
2022-12-25T13:52:16.870Z,13.38
2022-12-25T13:54:54.889Z,12.23
2022-12-25T13:57:25.201Z,13.20
2022-12-25T13:59:52.264Z,12.85
2022-12-25T14:02:26.773Z,13.98
2022-12-25T14:04:53.687Z,13.75
2022-12-25T14:07:26.098Z,13.52
2022-12-25T14:10:02.256Z,13.40
2022-12-25T14:12:31.583Z,13.85
2022-12-25T14:15:00.547Z,11.77
2022-12-25T14:17:27.576Z,10.80
2022-12-25T14:20:04.006Z,12.95
2022-12-25T14:22:37.088Z,12.02
2022-12-25T14:25:14.298Z,11.75
2022-12-25T14:27:48.016Z,11.65
2022-12-25T14:30:20.010Z,11.82
2022-12-25T14:32:53.081Z,12.27
2022-12-25T14:35:23.543Z,12.60
2022-12-25T14:38:00.842Z,13.18
2022-12-25T14:40:32.632Z,12.27
2022-12-25T14:43:06.647Z,12.70
2022-12-25T14:45:38.868Z,12.98
2022-12-25T14:48:31.657Z,12.70
2022-12-25T14:51:18.336Z,14.68
2022-12-25T14:53:51.728Z,13.50
2022-12-25T14:56:21.436Z,12.95
2022-12-25T14:58:55.398Z,12.82
2022-12-25T15:01:36.283Z,13.32
2022-12-25T15:04:12.168Z,10.50
2022-12-25T15:07:01.057Z,10.20
2022-12-25T15:09:32.851Z,9.98
2022-12-25T15:11:59.867Z,9.30
2022-12-25T15:14:27.903Z,9.65
2022-12-25T15:17:00.771Z,8.80
2022-12-25T15:19:37.809Z,8.73
2022-12-25T15:22:05.730Z,9.02
2022-12-25T15:24:32.624Z,8.98
2022-12-25T15:27:01.039Z,9.57
2022-12-25T15:32:18.766Z,11.93
2022-12-25T15:34:47.305Z,12.25
2022-12-25T15:37:14.581Z,14.93
2022-12-25T15:39:41.648Z,15.70
2022-12-25T15:42:17.284Z,15.30
2022-12-25T15:44:45.333Z,13.85
2022-12-25T15:47:14.129Z,15.32
2022-12-25T15:49:40.980Z,14.68
2022-12-25T15:52:10.199Z,14.75
2022-12-25T15:54:37.079Z,14.85
2022-12-25T15:57:06.423Z,14.95
2022-12-25T15:59:33.547Z,14.30
2022-12-25T16:02:01.601Z,13.00
2022-12-25T16:04:31.502Z,12.80
2022-12-25T16:06:59.585Z,13.05
2022-12-25T16:09:27.573Z,12.98
2022-12-25T16:11:54.776Z,12.02
2022-12-25T16:14:21.951Z,12.18
2022-12-25T16:16:48.690Z,13.60
2022-12-25T16:19:15.453Z,13.20
2022-12-25T16:21:46.236Z,13.00
2022-12-25T16:24:13.725Z,14.55
2022-12-25T16:26:40.657Z,15.23
2022-12-25T16:29:07.868Z,16.27
2022-12-25T16:31:35.808Z,15.80
2022-12-25T16:34:03.221Z,16.52
2022-12-25T16:36:30.629Z,16.88
2022-12-25T16:38:57.853Z,17.17
2022-12-25T16:41:25.884Z,17.77
2022-12-25T16:43:52.558Z,17.33
2022-12-25T16:46:21.490Z,20.95
2022-12-25T16:48:48.497Z,22.10
2022-12-25T16:51:19.007Z,20.13
2022-12-25T16:53:46.084Z,22.13
2022-12-25T16:56:16.238Z,20.35
2022-12-25T16:58:45.797Z,17.92
2022-12-25T17:01:17.817Z,16.38
2022-12-25T17:03:47.865Z,17.17
2022-12-25T17:06:15.970Z,19.80
2022-12-25T17:08:43.333Z,19.50
2022-12-25T17:11:10.455Z,18.60
2022-12-25T17:13:37.132Z,19.45
2022-12-25T17:16:19.040Z,18.30
2022-12-25T17:18:46.275Z,20.65
2022-12-25T17:21:16.865Z,22.50
2022-12-25T17:23:45.133Z,23.50
2022-12-25T17:26:11.881Z,23.05
2022-12-25T17:28:38.734Z,17.73
2022-12-25T17:31:08.328Z,18.67
2022-12-25T17:33:36.248Z,18.48
2022-12-25T17:36:04.930Z,20.60
2022-12-25T17:38:32.687Z,18.33
2022-12-25T17:41:02.249Z,17.25
2022-12-25T17:43:29.061Z,16.75
2022-12-25T17:45:57.358Z,19.63
2022-12-25T17:48:24.029Z,19.45
2022-12-25T17:50:50.690Z,19.25
2022-12-25T17:53:17.376Z,18.23
2022-12-25T17:55:44.390Z,18.15
2022-12-25T17:58:11.513Z,21.33
2022-12-25T18:00:38.353Z,20.90
2022-12-25T18:03:11.283Z,22.45
2022-12-25T18:08:05.334Z,17.30
2022-12-25T18:10:42.174Z,19.45
2022-12-25T18:13:10.091Z,20.55
2022-12-25T18:15:40.895Z,21.08
2022-12-25T18:18:08.169Z,21.77
2022-12-25T18:20:39.839Z,22.38
2022-12-25T18:23:08.011Z,21.10
2022-12-25T18:25:34.803Z,20.40
2022-12-25T18:28:02.675Z,19.55
2022-12-25T18:30:29.533Z,18.83
2022-12-25T18:32:56.322Z,20.65
2022-12-25T18:35:23.342Z,20.45
2022-12-25T18:37:50.177Z,22.13
2022-12-25T18:40:17.012Z,18.65
2022-12-25T18:42:46.706Z,17.48
2022-12-25T18:45:14.933Z,16.85
2022-12-25T18:47:41.762Z,16.60
2022-12-25T18:50:09.417Z,16.27
2022-12-25T18:52:48.251Z,16.10
2022-12-25T18:55:17.646Z,15.50
2022-12-25T18:57:44.410Z,15.32
2022-12-25T19:00:11.752Z,15.45
2022-12-25T19:02:38.691Z,15.48
2022-12-25T19:05:06.018Z,15.60
2022-12-25T19:07:33.266Z,14.32
2022-12-25T19:10:00.015Z,14.95
2022-12-25T19:12:26.981Z,18.75
2022-12-25T19:14:53.638Z,16.65
2022-12-25T19:17:20.433Z,45.50
2022-12-25T19:19:47.138Z,19.77
2022-12-25T19:22:14.292Z,32.35
2022-12-25T19:24:40.986Z,17.85
2022-12-25T19:27:08.066Z,18.98
2022-12-25T19:29:34.748Z,16.58
2022-12-25T19:32:01.470Z,18.13
2022-12-25T19:34:28.682Z,20.83
2022-12-25T19:36:55.361Z,18.35
2022-12-25T19:39:22.233Z,17.23
2022-12-25T19:41:48.860Z,15.68
2022-12-25T19:44:15.802Z,16.23
2022-12-25T19:46:42.869Z,16.40
2022-12-25T19:49:13.265Z,16.50
2022-12-25T19:51:43.075Z,29.58
2022-12-25T19:54:15.248Z,22.70
2022-12-25T19:56:43.147Z,20.50
2022-12-25T19:59:12.028Z,18.83
2022-12-25T20:01:39.543Z,19.67
2022-12-25T20:04:08.808Z,20.10
2022-12-25T20:06:38.366Z,20.80
2022-12-25T20:09:12.641Z,22.30
2022-12-25T20:11:40.271Z,16.92
2022-12-25T20:14:08.206Z,17.05
2022-12-25T20:16:38.114Z,16.63
2022-12-25T20:19:05.821Z,17.25
2022-12-25T20:21:32.663Z,15.82
2022-12-25T20:23:59.615Z,17.92
2022-12-25T20:26:30.060Z,21.15
2022-12-25T20:28:57.301Z,16.65
2022-12-25T20:31:29.875Z,16.92
2022-12-25T20:33:59.065Z,17.40
2022-12-25T20:36:29.673Z,20.45
2022-12-25T20:41:27.941Z,26.27
2022-12-25T20:43:55.967Z,19.25
2022-12-25T20:46:23.001Z,16.73
2022-12-25T20:48:49.989Z,16.98
2022-12-25T20:51:18.772Z,15.88
2022-12-25T20:53:47.458Z,18.88
2022-12-25T20:56:16.068Z,15.02
2022-12-25T20:58:43.269Z,14.05
2022-12-25T21:01:12.975Z,14.27
2022-12-25T21:03:40.592Z,18.08
2022-12-25T21:06:08.711Z,15.80
2022-12-25T21:08:36.436Z,23.48
2022-12-25T21:11:04.506Z,15.32
2022-12-25T21:13:33.851Z,12.88
2022-12-25T21:16:00.916Z,13.63
2022-12-25T21:18:28.445Z,14.82
2022-12-25T21:20:59.803Z,13.48
2022-12-25T21:23:29.490Z,13.40
2022-12-25T21:25:56.334Z,13.65
2022-12-25T21:28:24.301Z,13.80
2022-12-25T21:30:51.059Z,12.77
2022-12-25T21:33:36.314Z,14.25
2022-12-25T21:36:10.920Z,16.58
2022-12-25T21:38:38.403Z,15.20
2022-12-25T21:41:07.278Z,13.93
2022-12-25T21:43:35.404Z,14.57
2022-12-25T21:46:06.648Z,13.73
2022-12-25T21:48:35.222Z,15.70
2022-12-25T21:51:39.707Z,15.18
2022-12-25T21:56:43.404Z,13.73
2022-12-25T21:59:16.781Z,14.75
2022-12-25T22:01:44.725Z,15.50
2022-12-25T22:04:13.107Z,15.30
2022-12-25T22:06:58.348Z,15.80
2022-12-25T22:09:25.054Z,16.60
2022-12-25T22:12:10.366Z,16.13
2022-12-25T22:14:55.468Z,15.50
2022-12-25T22:17:49.098Z,16.02
2022-12-25T22:20:19.527Z,16.50
2022-12-25T22:22:46.712Z,16.05
2022-12-25T22:25:14.602Z,16.65
2022-12-25T22:27:42.697Z,17.40
2022-12-25T22:30:19.060Z,16.30
2022-12-25T22:32:46.441Z,16.73
2022-12-25T22:35:14.324Z,17.38
2022-12-25T22:37:43.014Z,16.45
2022-12-25T22:40:13.134Z,19.10
2022-12-25T22:42:40.895Z,18.25
2022-12-25T22:45:08.186Z,17.23
2022-12-25T22:47:35.577Z,18.75
2022-12-25T22:50:02.223Z,19.88
2022-12-25T22:52:28.941Z,19.42
2022-12-25T22:54:55.670Z,17.92
2022-12-25T22:57:22.470Z,19.45
2022-12-25T22:59:52.995Z,19.83
2022-12-25T23:02:20.253Z,18.75
2022-12-25T23:04:47.305Z,23.05
2022-12-25T23:07:15.108Z,20.45
2022-12-25T23:09:43.309Z,19.92
2022-12-25T23:12:30.517Z,20.85
2022-12-25T23:14:57.545Z,19.05
2022-12-25T23:17:43.422Z,19.50
2022-12-25T23:20:31.541Z,20.67
2022-12-25T23:23:16.865Z,19.67
2022-12-25T23:26:02.161Z,22.30
2022-12-25T23:28:47.843Z,21.02
2022-12-25T23:31:14.697Z,22.55
2022-12-25T23:33:41.480Z,21.63
2022-12-25T23:36:08.377Z,21.65
2022-12-25T23:38:35.180Z,21.63
2022-12-25T23:41:01.867Z,20.38
2022-12-25T23:43:28.704Z,22.13
2022-12-25T23:45:55.637Z,22.23
2022-12-25T23:48:22.229Z,21.77
2022-12-25T23:50:48.965Z,21.00
2022-12-25T23:53:15.797Z,22.42
2022-12-25T23:55:42.726Z,20.42
2022-12-25T23:58:10.154Z,22.13
